Terminal Aerodrome Forecast
Issued by NWS

Home | Current Version | Previous Version | Text Only | Print | Product List | Glossary On
Versions: 1 2 3 4 5 6 7 8 9 10 11 12 13 14 15
011
FTUS43 KIND 081720
TAFBMG
TAF
KBMG 081720Z 0818/0918 29011G19KT 3SM -SHSN SCT006 OVC012
      TEMPO 0818/0822 1SM -SHSN BR
     FM090100 28008G18KT P6SM VCSH SCT010 OVC020
     FM090900 29009G20KT 3SM -SHSN BR OVC015=

USA.gov is the U.S. government's official web portal to all federal, state and local government web resources and services.